sensor_id;sensor_type;location;lat;lon;timestamp;temperature;humidity
28069;DHT22;15382;47.578;8.086;2023-04-25T00:07:51;8.10;99.90
28069;DHT22;15382;47.578;8.086;2023-04-25T00:17:52;7.90;99.90
28069;DHT22;15382;47.578;8.086;2023-04-25T00:27:53;7.30;99.90
28069;DHT22;15382;47.578;8.086;2023-04-25T00:37:54;7.20;99.90
28069;DHT22;15382;47.578;8.086;2023-04-25T00:47:55;7.20;99.90
28069;DHT22;15382;47.578;8.086;2023-04-25T00:57:57;7.00;99.90
28069;DHT22;15382;47.578;8.086;2023-04-25T01:07:58;7.00;99.90
28069;DHT22;15382;47.578;8.086;2023-04-25T01:18:00;6.90;99.90
28069;DHT22;15382;47.578;8.086;2023-04-25T01:28:01;6.60;99.90
28069;DHT22;15382;47.578;8.086;2023-04-25T01:38:03;6.30;99.90
28069;DHT22;15382;47.578;8.086;2023-04-25T01:48:04;6.00;99.90
28069;DHT22;15382;47.578;8.086;2023-04-25T01:58:05;5.70;99.90
28069;DHT22;15382;47.578;8.086;2023-04-25T02:08:30;5.60;99.90
28069;DHT22;15382;47.578;8.086;2023-04-25T02:18:31;5.10;99.90
28069;DHT22;15382;47.578;8.086;2023-04-25T02:28:33;4.90;99.90
28069;DHT22;15382;47.578;8.086;2023-04-25T02:38:38;4.50;99.90
28069;DHT22;15382;47.578;8.086;2023-04-25T02:48:39;4.30;99.90
28069;DHT22;15382;47.578;8.086;2023-04-25T02:58:40;4.30;99.90
28069;DHT22;15382;47.578;8.086;2023-04-25T03:08:41;3.80;99.90
28069;DHT22;15382;47.578;8.086;2023-04-25T03:18:42;3.70;99.90
28069;DHT22;15382;47.578;8.086;2023-04-25T03:28:43;3.70;99.90
28069;DHT22;15382;47.578;8.086;2023-04-25T03:38:43;3.90;99.90
28069;DHT22;15382;47.578;8.086;2023-04-25T03:48:47;3.90;99.90
28069;DHT22;15382;47.578;8.086;2023-04-25T03:58:55;4.10;99.90
28069;DHT22;15382;47.578;8.086;2023-04-25T04:08:58;4.10;99.90
28069;DHT22;15382;47.578;8.086;2023-04-25T04:18:59;3.70;99.90
28069;DHT22;15382;47.578;8.086;2023-04-25T04:29:00;3.90;99.90
28069;DHT22;15382;47.578;8.086;2023-04-25T04:39:27;4.10;99.90
28069;DHT22;15382;47.578;8.086;2023-04-25T04:49:36;4.20;99.90
28069;DHT22;15382;47.578;8.086;2023-04-25T05:00:03;4.30;99.90
28069;DHT22;15382;47.578;8.086;2023-04-25T05:10:34;4.80;99.90
28069;DHT22;15382;47.578;8.086;2023-04-25T05:20:52;5.10;99.90
28069;DHT22;15382;47.578;8.086;2023-04-25T05:31:00;5.30;99.90
28069;DHT22;15382;47.578;8.086;2023-04-25T05:41:12;5.40;99.90
28069;DHT22;15382;47.578;8.086;2023-04-25T05:51:17;5.30;99.90
28069;DHT22;15382;47.578;8.086;2023-04-25T06:01:37;5.20;99.90
28069;DHT22;15382;47.578;8.086;2023-04-25T06:11:38;5.20;99.90
28069;DHT22;15382;47.578;8.086;2023-04-25T06:21:39;5.40;99.90
28069;DHT22;15382;47.578;8.086;2023-04-25T06:31:40;5.40;99.90
28069;DHT22;15382;47.578;8.086;2023-04-25T06:41:41;5.50;99.90
28069;DHT22;15382;47.578;8.086;2023-04-25T06:51:49;5.50;99.90
28069;DHT22;15382;47.578;8.086;2023-04-25T07:01:50;5.60;99.90
28069;DHT22;15382;47.578;8.086;2023-04-25T07:11:55;5.70;99.90
28069;DHT22;15382;47.578;8.086;2023-04-25T07:21:57;5.80;99.90
28069;DHT22;15382;47.578;8.086;2023-04-25T07:31:58;6.00;99.90
28069;DHT22;15382;47.578;8.086;2023-04-25T07:41:58;6.00;99.90
28069;DHT22;15382;47.578;8.086;2023-04-25T07:52:04;6.20;99.90
28069;DHT22;15382;47.578;8.086;2023-04-25T08:02:09;6.50;99.90
28069;DHT22;15382;47.578;8.086;2023-04-25T08:12:11;6.80;99.90
28069;DHT22;15382;47.578;8.086;2023-04-25T08:22:12;6.90;99.90
28069;DHT22;15382;47.578;8.086;2023-04-25T08:32:24;7.40;99.90
28069;DHT22;15382;47.578;8.086;2023-04-25T08:42:42;7.60;99.90
28069;DHT22;15382;47.578;8.086;2023-04-25T08:52:44;8.40;99.90
28069;DHT22;15382;47.578;8.086;2023-04-25T09:02:49;8.00;99.90
28069;DHT22;15382;47.578;8.086;2023-04-25T09:13:12;7.70;99.90
28069;DHT22;15382;47.578;8.086;2023-04-25T09:23:51;7.90;99.90
28069;DHT22;15382;47.578;8.086;2023-04-25T09:33:59;8.70;99.90
28069;DHT22;15382;47.578;8.086;2023-04-25T09:44:02;8.60;99.90
28069;DHT22;15382;47.578;8.086;2023-04-25T09:54:09;9.20;99.90
28069;DHT22;15382;47.578;8.086;2023-04-25T10:04:25;9.10;99.90
28069;DHT22;15382;47.578;8.086;2023-04-25T10:14:38;9.40;99.90
28069;DHT22;15382;47.578;8.086;2023-04-25T10:24:40;10.80;99.90
28069;DHT22;15382;47.578;8.086;2023-04-25T10:34:43;10.90;99.90
28069;DHT22;15382;47.578;8.086;2023-04-25T10:45:01;10.50;99.90
28069;DHT22;15382;47.578;8.086;2023-04-25T10:55:06;10.40;99.90
28069;DHT22;15382;47.578;8.086;2023-04-25T11:05:07;9.50;99.90
28069;DHT22;15382;47.578;8.086;2023-04-25T11:15:08;9.30;99.90
28069;DHT22;15382;47.578;8.086;2023-04-25T11:25:11;9.40;99.90
28069;DHT22;15382;47.578;8.086;2023-04-25T11:35:13;9.40;99.90
28069;DHT22;15382;47.578;8.086;2023-04-25T11:45:14;9.90;99.90
28069;DHT22;15382;47.578;8.086;2023-04-25T11:55:16;10.30;99.90
28069;DHT22;15382;47.578;8.086;2023-04-25T12:05:17;9.90;99.90
28069;DHT22;15382;47.578;8.086;2023-04-25T12:15:23;9.50;99.90
28069;DHT22;15382;47.578;8.086;2023-04-25T12:25:42;8.30;99.90
28069;DHT22;15382;47.578;8.086;2023-04-25T12:35:43;8.10;99.90
28069;DHT22;15382;47.578;8.086;2023-04-25T12:45:47;8.30;99.90
28069;DHT22;15382;47.578;8.086;2023-04-25T12:55:48;8.50;99.90
28069;DHT22;15382;47.578;8.086;2023-04-25T13:05:49;8.90;99.90
28069;DHT22;15382;47.578;8.086;2023-04-25T13:15:50;8.20;99.90
28069;DHT22;15382;47.578;8.086;2023-04-25T13:25:51;9.00;99.90
28069;DHT22;15382;47.578;8.086;2023-04-25T13:35:53;10.80;99.90
28069;DHT22;15382;47.578;8.086;2023-04-25T13:45:57;10.70;99.90
28069;DHT22;15382;47.578;8.086;2023-04-25T13:55:58;11.30;99.90
28069;DHT22;15382;47.578;8.086;2023-04-25T14:05:59;12.30;99.90
28069;DHT22;15382;47.578;8.086;2023-04-25T14:16:00;12.40;99.90
28069;DHT22;15382;47.578;8.086;2023-04-25T14:26:01;11.90;99.90
28069;DHT22;15382;47.578;8.086;2023-04-25T14:36:02;11.20;99.90
28069;DHT22;15382;47.578;8.086;2023-04-25T14:46:03;10.00;99.90
28069;DHT22;15382;47.578;8.086;2023-04-25T14:56:04;8.30;99.90
28069;DHT22;15382;47.578;8.086;2023-04-25T15:06:05;7.90;99.90
28069;DHT22;15382;47.578;8.086;2023-04-25T15:16:06;8.10;99.90
28069;DHT22;15382;47.578;8.086;2023-04-25T15:26:08;8.50;99.90
28069;DHT22;15382;47.578;8.086;2023-04-25T15:36:08;8.80;99.90
28069;DHT22;15382;47.578;8.086;2023-04-25T15:46:10;8.90;99.90
28069;DHT22;15382;47.578;8.086;2023-04-25T15:56:11;8.90;99.90
28069;DHT22;15382;47.578;8.086;2023-04-25T16:06:12;8.10;99.90
28069;DHT22;15382;47.578;8.086;2023-04-25T16:16:14;7.70;99.90
28069;DHT22;15382;47.578;8.086;2023-04-25T16:26:15;8.20;99.90
28069;DHT22;15382;47.578;8.086;2023-04-25T16:36:16;8.50;99.90
28069;DHT22;15382;47.578;8.086;2023-04-25T16:46:16;8.80;99.90
28069;DHT22;15382;47.578;8.086;2023-04-25T16:56:21;9.00;99.90
28069;DHT22;15382;47.578;8.086;2023-04-25T17:06:22;8.70;99.90
28069;DHT22;15382;47.578;8.086;2023-04-25T17:16:33;8.60;99.90
28069;DHT22;15382;47.578;8.086;2023-04-25T17:26:35;8.60;99.90
28069;DHT22;15382;47.578;8.086;2023-04-25T17:36:36;8.70;99.90
28069;DHT22;15382;47.578;8.086;2023-04-25T17:46:37;8.60;99.90
28069;DHT22;15382;47.578;8.086;2023-04-25T17:56:38;8.40;99.90
28069;DHT22;15382;47.578;8.086;2023-04-25T18:06:40;8.40;99.90
28069;DHT22;15382;47.578;8.086;2023-04-25T18:16:43;8.40;99.90
28069;DHT22;15382;47.578;8.086;2023-04-25T18:26:45;8.30;99.90
28069;DHT22;15382;47.578;8.086;2023-04-25T18:36:47;8.10;99.90
28069;DHT22;15382;47.578;8.086;2023-04-25T18:46:48;8.10;99.90
28069;DHT22;15382;47.578;8.086;2023-04-25T18:56:49;8.10;99.90
28069;DHT22;15382;47.578;8.086;2023-04-25T19:06:50;7.90;99.90
28069;DHT22;15382;47.578;8.086;2023-04-25T19:16:51;7.70;99.90
28069;DHT22;15382;47.578;8.086;2023-04-25T19:26:52;7.50;99.90
28069;DHT22;15382;47.578;8.086;2023-04-25T19:36:53;7.50;99.90
28069;DHT22;15382;47.578;8.086;2023-04-25T19:46:55;7.40;99.90
28069;DHT22;15382;47.578;8.086;2023-04-25T19:56:55;7.20;99.90
28069;DHT22;15382;47.578;8.086;2023-04-25T20:06:56;7.20;99.90
28069;DHT22;15382;47.578;8.086;2023-04-25T20:16:57;7.20;99.90
28069;DHT22;15382;47.578;8.086;2023-04-25T20:26:58;7.10;99.90
28069;DHT22;15382;47.578;8.086;2023-04-25T20:36:59;7.10;99.90
28069;DHT22;15382;47.578;8.086;2023-04-25T20:47:02;6.90;99.90
28069;DHT22;15382;47.578;8.086;2023-04-25T20:57:04;6.90;99.90
28069;DHT22;15382;47.578;8.086;2023-04-25T21:07:06;6.90;99.90
28069;DHT22;15382;47.578;8.086;2023-04-25T21:17:06;6.80;99.90
28069;DHT22;15382;47.578;8.086;2023-04-25T21:27:07;6.70;99.90
28069;DHT22;15382;47.578;8.086;2023-04-25T21:37:08;6.80;99.90
28069;DHT22;15382;47.578;8.086;2023-04-25T21:47:09;6.40;99.90
28069;DHT22;15382;47.578;8.086;2023-04-25T21:57:10;6.30;99.90
28069;DHT22;15382;47.578;8.086;2023-04-25T22:07:10;6.10;99.90
28069;DHT22;15382;47.578;8.086;2023-04-25T22:17:11;5.70;99.90
28069;DHT22;15382;47.578;8.086;2023-04-25T22:27:12;5.40;99.90
28069;DHT22;15382;47.578;8.086;2023-04-25T22:37:13;5.10;99.90
28069;DHT22;15382;47.578;8.086;2023-04-25T22:47:14;4.90;99.90
28069;DHT22;15382;47.578;8.086;2023-04-25T22:57:15;4.80;99.90
28069;DHT22;15382;47.578;8.086;2023-04-25T23:07:16;4.70;99.90
